createdAt,value
2023-01-27T00:03:08.299Z,8.30
2023-01-27T00:07:11.023Z,8.93
2023-01-27T00:11:31.365Z,8.83
2023-01-27T00:15:35.426Z,9.20
2023-01-27T00:19:41.348Z,8.43
2023-01-27T00:24:01.668Z,8.77
2023-01-27T00:28:05.919Z,9.10
2023-01-27T00:32:26.478Z,10.20
2023-01-27T00:36:31.333Z,9.50
2023-01-27T00:40:34.064Z,9.63
2023-01-27T00:44:36.768Z,9.50
2023-01-27T00:48:39.516Z,9.20
2023-01-27T00:52:43.965Z,8.53
2023-01-27T00:56:46.669Z,9.63
2023-01-27T01:00:49.348Z,9.53
2023-01-27T01:04:52.303Z,9.80
2023-01-27T01:08:57.545Z,9.97
2023-01-27T01:13:00.309Z,9.50
2023-01-27T01:17:03.024Z,9.67
2023-01-27T01:21:06.799Z,10.57
2023-01-27T01:25:10.954Z,10.20
2023-01-27T01:29:13.735Z,10.50
2023-01-27T01:33:16.462Z,10.70
2023-01-27T01:37:19.194Z,11.07
2023-01-27T01:41:23.617Z,11.10
2023-01-27T01:45:54.178Z,10.37
2023-01-27T01:49:56.896Z,11.50
2023-01-27T01:54:02.427Z,11.07
2023-01-27T01:58:08.611Z,11.10
2023-01-27T02:02:13.445Z,11.43
2023-01-27T02:06:16.237Z,11.47
2023-01-27T02:10:19.211Z,11.40
2023-01-27T02:14:23.891Z,11.43
2023-01-27T02:18:27.460Z,11.33
2023-01-27T02:22:35.010Z,11.73
2023-01-27T02:26:39.925Z,11.00
2023-01-27T02:30:42.737Z,11.70
2023-01-27T02:34:45.499Z,11.17
2023-01-27T02:38:49.820Z,10.77
2023-01-27T02:42:55.266Z,11.53
2023-01-27T02:46:57.960Z,11.50
2023-01-27T02:51:00.938Z,12.10
2023-01-27T02:55:03.604Z,12.37
2023-01-27T02:59:07.675Z,13.33
2023-01-27T03:03:10.634Z,12.50
2023-01-27T03:07:13.372Z,12.63
2023-01-27T03:11:36.695Z,13.90
2023-01-27T03:15:58.056Z,13.83
2023-01-27T03:20:00.775Z,13.20
2023-01-27T03:24:03.775Z,14.03
2023-01-27T03:28:06.532Z,13.97
2023-01-27T03:32:10.617Z,14.30
2023-01-27T03:36:30.846Z,14.13
2023-01-27T03:40:51.068Z,14.03
2023-01-27T03:45:11.532Z,14.13
2023-01-27T03:49:15.771Z,13.43
2023-01-27T03:53:18.494Z,12.77
2023-01-27T03:57:21.216Z,14.00
2023-01-27T04:01:24.955Z,12.80
2023-01-27T04:05:46.332Z,11.30
2023-01-27T04:09:49.026Z,10.47
2023-01-27T04:13:51.720Z,9.77
2023-01-27T04:17:54.420Z,9.03
2023-01-27T04:21:59.742Z,9.27
2023-01-27T04:26:02.457Z,9.90
2023-01-27T04:30:06.151Z,9.57
2023-01-27T04:34:09.406Z,8.67
2023-01-27T04:38:13.734Z,8.73
2023-01-27T04:42:16.414Z,8.67
2023-01-27T04:46:19.114Z,9.43
2023-01-27T04:50:22.053Z,8.70
2023-01-27T04:54:26.203Z,8.77
2023-01-27T04:58:29.116Z,8.23
2023-01-27T05:02:32.024Z,8.80
2023-01-27T05:06:34.822Z,9.13
2023-01-27T05:10:38.939Z,7.70
2023-01-27T05:14:41.998Z,8.50
2023-01-27T05:18:46.412Z,8.33
2023-01-27T05:22:49.250Z,7.63
2023-01-27T05:26:53.535Z,7.73
2023-01-27T05:31:02.411Z,7.80
2023-01-27T05:35:05.926Z,7.27
2023-01-27T05:39:10.932Z,7.27
2023-01-27T05:43:14.990Z,7.40
2023-01-27T05:47:17.691Z,7.50
2023-01-27T05:51:22.392Z,7.70
2023-01-27T05:55:25.077Z,7.17
2023-01-27T05:59:29.162Z,8.60
2023-01-27T06:03:31.876Z,7.50
2023-01-27T06:07:34.867Z,7.73
2023-01-27T06:11:37.666Z,7.97
2023-01-27T06:15:48.320Z,8.23
2023-01-27T06:19:53.317Z,8.40
2023-01-27T06:23:58.030Z,7.97
2023-01-27T06:28:01.547Z,8.90
2023-01-27T06:32:05.980Z,7.80
2023-01-27T06:36:11.451Z,9.30
2023-01-27T06:40:15.066Z,9.20
2023-01-27T06:44:18.014Z,8.33
2023-01-27T06:48:22.562Z,8.87
2023-01-27T06:52:25.252Z,9.27
2023-01-27T06:56:28.282Z,9.13
2023-01-27T07:00:31.025Z,9.07
2023-01-27T07:04:35.357Z,8.90
2023-01-27T07:08:38.570Z,8.07
2023-01-27T07:12:41.352Z,9.07
2023-01-27T07:16:44.042Z,8.87
2023-01-27T07:20:48.161Z,8.83
2023-01-27T07:24:50.826Z,8.50
2023-01-27T07:28:54.252Z,8.80
2023-01-27T07:32:56.973Z,9.23
2023-01-27T07:37:01.643Z,8.60
2023-01-27T07:41:05.278Z,7.73
2023-01-27T07:45:09.546Z,9.20
2023-01-27T07:49:12.499Z,8.67
2023-01-27T07:53:16.642Z,9.07
2023-01-27T07:57:19.617Z,8.77
2023-01-27T08:01:22.496Z,8.77
2023-01-27T08:05:25.445Z,8.40
2023-01-27T08:09:29.845Z,8.40
2023-01-27T08:13:32.868Z,8.17
2023-01-27T08:17:35.734Z,7.37
2023-01-27T08:21:38.496Z,7.40
2023-01-27T08:25:42.594Z,8.10
2023-01-27T08:29:45.551Z,7.63
2023-01-27T08:33:54.864Z,7.63
2023-01-27T08:37:57.615Z,7.33
2023-01-27T08:42:01.783Z,7.73
2023-01-27T08:46:05.035Z,6.67
2023-01-27T08:50:08.752Z,7.83
2023-01-27T08:54:12.416Z,7.80
2023-01-27T08:58:16.840Z,6.67
2023-01-27T09:02:22.294Z,7.37
2023-01-27T09:06:25.400Z,6.90
2023-01-27T09:10:28.113Z,8.17
2023-01-27T09:14:32.158Z,7.37
2023-01-27T09:18:35.136Z,6.90
2023-01-27T09:22:40.162Z,6.80
2023-01-27T09:26:42.894Z,6.47
2023-01-27T09:30:47.472Z,5.77
2023-01-27T09:34:50.257Z,7.07
2023-01-27T09:38:55.608Z,5.67
2023-01-27T09:43:45.920Z,7.60
2023-01-27T09:48:17.963Z,7.50
2023-01-27T09:52:47.167Z,6.33
2023-01-27T09:56:55.847Z,6.37
2023-01-27T10:01:03.991Z,6.80
2023-01-27T10:05:25.055Z,6.80
2023-01-27T10:09:40.366Z,7.00
2023-01-27T10:13:50.453Z,6.50
2023-01-27T10:17:58.179Z,6.57
2023-01-27T10:22:08.919Z,6.97
2023-01-27T10:26:20.947Z,5.90
2023-01-27T10:30:29.181Z,6.63
2023-01-27T10:34:36.529Z,6.40
2023-01-27T10:38:43.198Z,7.30
2023-01-27T10:42:51.357Z,6.03
2023-01-27T10:47:02.203Z,6.00
2023-01-27T10:51:09.025Z,6.03
2023-01-27T10:55:18.675Z,5.83
2023-01-27T10:59:24.026Z,5.40
2023-01-27T11:03:29.431Z,5.83
2023-01-27T11:07:33.335Z,5.13
2023-01-27T11:11:46.854Z,5.13
2023-01-27T11:15:49.991Z,5.47
2023-01-27T11:19:58.984Z,5.30
2023-01-27T11:24:13.919Z,5.53
2023-01-27T11:28:26.929Z,6.13
2023-01-27T11:32:41.111Z,5.57
2023-01-27T11:36:44.039Z,5.47
2023-01-27T11:40:47.914Z,5.70
2023-01-27T11:44:56.302Z,5.37
2023-01-27T11:48:59.956Z,4.90
2023-01-27T11:53:07.435Z,5.30
2023-01-27T11:57:18.880Z,5.10
2023-01-27T12:01:26.392Z,4.80
2023-01-27T12:05:33.648Z,5.07
2023-01-27T12:09:37.956Z,4.47
2023-01-27T12:13:49.619Z,4.97
2023-01-27T12:17:55.960Z,4.60
2023-01-27T12:22:01.265Z,5.20
2023-01-27T12:26:05.270Z,5.70
2023-01-27T12:30:19.241Z,4.90
2023-01-27T12:34:30.279Z,4.30
2023-01-27T12:38:36.535Z,5.00
2023-01-27T12:42:41.903Z,4.60
2023-01-27T12:46:59.188Z,5.57
2023-01-27T12:51:08.527Z,4.90
2023-01-27T12:55:29.236Z,4.97
2023-01-27T12:59:32.869Z,4.67
2023-01-27T13:03:40.709Z,4.57
2023-01-27T13:07:46.638Z,6.90
2023-01-27T13:11:49.515Z,6.07
2023-01-27T13:15:53.874Z,4.77
2023-01-27T13:19:57.752Z,4.60
2023-01-27T13:24:03.660Z,4.83
2023-01-27T13:28:08.911Z,4.90
2023-01-27T13:32:19.523Z,4.63
2023-01-27T13:36:29.162Z,4.50
2023-01-27T13:40:39.325Z,4.50
2023-01-27T13:44:44.950Z,4.53
2023-01-27T13:48:52.084Z,5.43
2023-01-27T13:52:56.662Z,5.30
2023-01-27T13:57:28.830Z,4.80
2023-01-27T14:01:44.475Z,5.10
2023-01-27T14:05:59.110Z,4.50
2023-01-27T14:10:09.925Z,4.37
2023-01-27T14:14:22.601Z,4.20
2023-01-27T14:18:28.591Z,4.60
2023-01-27T14:22:38.441Z,4.90
2023-01-27T14:26:48.704Z,8.50
2023-01-27T14:30:57.042Z,6.90
2023-01-27T14:35:19.754Z,5.90
2023-01-27T14:39:28.952Z,5.40
2023-01-27T14:43:37.047Z,5.33
2023-01-27T14:47:46.966Z,5.17
2023-01-27T14:51:53.621Z,5.35
2023-01-27T14:55:59.899Z,4.00
2023-01-27T15:00:14.453Z,4.80
2023-01-27T15:04:38.365Z,4.20
2023-01-27T15:08:44.565Z,4.20
2023-01-27T15:13:06.796Z,3.67
2023-01-27T15:17:25.049Z,4.27
2023-01-27T15:21:54.296Z,4.93
2023-01-27T15:25:59.925Z,5.30
2023-01-27T15:30:07.442Z,4.33
2023-01-27T15:34:21.502Z,5.10
2023-01-27T15:38:35.808Z,4.70
2023-01-27T15:42:52.276Z,4.50
2023-01-27T15:46:55.741Z,4.47
2023-01-27T15:51:02.132Z,4.23
2023-01-27T15:55:07.879Z,4.57
2023-01-27T15:59:15.956Z,5.60
2023-01-27T16:03:23.344Z,4.67
2023-01-27T16:07:29.707Z,6.07
2023-01-27T16:11:43.379Z,6.07
2023-01-27T16:15:46.707Z,5.23
2023-01-27T16:19:57.082Z,6.70
2023-01-27T16:24:02.962Z,12.50
2023-01-27T16:28:09.821Z,5.77
2023-01-27T16:32:17.023Z,7.20
2023-01-27T16:36:24.502Z,7.87
2023-01-27T16:40:28.601Z,7.37
2023-01-27T16:44:40.345Z,6.70
2023-01-27T16:48:46.621Z,6.67
2023-01-27T16:52:50.566Z,6.93
2023-01-27T16:56:53.602Z,7.33
2023-01-27T17:00:58.609Z,6.57
2023-01-27T17:05:04.891Z,6.60
2023-01-27T17:09:20.931Z,6.97
2023-01-27T17:13:31.961Z,6.80
2023-01-27T17:17:36.375Z,5.97
2023-01-27T17:21:41.787Z,6.37
2023-01-27T17:25:45.608Z,6.97
2023-01-27T17:29:49.820Z,7.57
2023-01-27T17:34:50.558Z,6.40
2023-01-27T17:38:57.127Z,6.90
2023-01-27T17:42:59.816Z,5.80
2023-01-27T17:47:02.695Z,5.80
2023-01-27T17:51:07.186Z,5.97
2023-01-27T17:55:17.167Z,5.17
2023-01-27T17:59:22.073Z,5.40
2023-01-27T18:03:27.847Z,4.57
2023-01-27T18:07:32.580Z,5.23
2023-01-27T18:11:37.450Z,4.70
2023-01-27T18:15:42.615Z,4.77
2023-01-27T18:19:50.789Z,4.40
2023-01-27T18:23:56.340Z,4.37
2023-01-27T18:28:00.938Z,4.57
2023-01-27T18:32:10.830Z,3.70
2023-01-27T18:36:22.666Z,4.00
2023-01-27T18:40:29.363Z,3.57
2023-01-27T18:44:35.858Z,4.33
2023-01-27T18:48:40.092Z,4.60
2023-01-27T18:52:43.158Z,4.90
2023-01-27T18:56:47.247Z,3.60
2023-01-27T19:00:51.986Z,3.33
2023-01-27T19:04:54.856Z,2.80
2023-01-27T19:08:57.737Z,3.57
2023-01-27T19:13:03.479Z,5.00
2023-01-27T19:17:13.411Z,5.00
2023-01-27T19:21:17.767Z,4.30
2023-01-27T19:25:20.929Z,3.53
2023-01-27T19:29:26.249Z,4.90
2023-01-27T19:33:32.466Z,4.63
2023-01-27T19:37:35.246Z,3.70
2023-01-27T19:41:38.025Z,2.80
2023-01-27T19:45:42.490Z,3.50
2023-01-27T19:49:45.229Z,3.20
2023-01-27T19:53:48.077Z,4.17
2023-01-27T19:57:52.008Z,3.80
2023-01-27T20:01:56.699Z,3.10
2023-01-27T20:05:59.446Z,3.70
2023-01-27T20:10:02.115Z,3.20
2023-01-27T20:14:07.556Z,5.10
2023-01-27T20:18:14.210Z,4.87
2023-01-27T20:22:17.203Z,3.77
2023-01-27T20:26:22.397Z,3.23
2023-01-27T20:30:26.661Z,2.90
2023-01-27T20:34:30.746Z,2.57
2023-01-27T20:38:33.465Z,3.37
2023-01-27T20:42:36.228Z,2.70
2023-01-27T20:46:38.982Z,4.37
2023-01-27T20:50:43.069Z,4.13
2023-01-27T20:54:45.803Z,5.77
2023-01-27T20:58:49.154Z,3.20
2023-01-27T21:02:52.139Z,2.80
2023-01-27T21:06:56.225Z,2.50
2023-01-27T21:11:00.864Z,2.37
2023-01-27T21:15:09.421Z,2.73
2023-01-27T21:19:12.917Z,3.23
2023-01-27T21:23:17.230Z,2.67
2023-01-27T21:27:20.083Z,2.93
2023-01-27T21:31:24.240Z,3.30
2023-01-27T21:35:27.092Z,3.03
2023-01-27T21:39:31.186Z,4.30
2023-01-27T21:43:51.145Z,5.67
2023-01-27T21:47:54.173Z,4.73
2023-01-27T21:51:56.862Z,2.97
2023-01-27T21:56:05.711Z,3.27
2023-01-27T22:00:10.414Z,3.53
2023-01-27T22:04:13.142Z,6.30
2023-01-27T22:08:15.916Z,4.60
2023-01-27T22:12:21.816Z,3.37
2023-01-27T22:16:25.981Z,2.70
2023-01-27T22:20:29.295Z,2.20
2023-01-27T22:24:31.979Z,3.30
2023-01-27T22:28:36.419Z,2.50
2023-01-27T22:32:39.129Z,3.00
2023-01-27T22:36:41.837Z,2.70
2023-01-27T22:40:44.540Z,2.70
2023-01-27T22:44:48.599Z,2.60
2023-01-27T22:48:51.448Z,2.83
2023-01-27T22:52:54.103Z,2.30
2023-01-27T22:56:56.783Z,2.70
2023-01-27T23:01:01.182Z,2.73
2023-01-27T23:05:04.082Z,2.73
2023-01-27T23:09:06.744Z,2.90
2023-01-27T23:13:09.565Z,2.80
2023-01-27T23:17:13.956Z,3.03
2023-01-27T23:21:16.635Z,3.00
2023-01-27T23:25:19.397Z,3.00
2023-01-27T23:29:24.984Z,2.80
2023-01-27T23:33:35.276Z,2.60
2023-01-27T23:37:38.123Z,3.07
2023-01-27T23:41:40.845Z,3.10
2023-01-27T23:45:43.637Z,2.70
2023-01-27T23:49:48.158Z,2.67
2023-01-27T23:53:51.324Z,2.63
2023-01-27T23:57:54.005Z,2.80
